Time;durP1;ratioP1;P1;durP2;ratioP2;P2;SDS_P1;SDS_P2;PMS_P1;PMS_P2;Temp;Humidity;BMP_temperature;BMP_pressure;BME280_temperature;BME280_humidity;BME280_pressure;Samples;Min_cycle;Max_cycle;Signal;HPM_P1;HPM_P2
2024/01/23 00:02:19;;;;;;;24.48;11.10;;;1.80;99.90;;;;;;4985084;28;20455;-54
2024/01/23 00:04:46;;;;;;;26.45;9.90;;;1.70;99.90;;;;;;4986956;28;20102;-56
2024/01/23 00:07:13;;;;;;;25.02;10.90;;;1.70;99.90;;;;;;4983076;28;20129;-54
2024/01/23 00:09:40;;;;;;;17.90;10.13;;;1.70;99.90;;;;;;4990409;28;20042;-57
2024/01/23 00:12:07;;;;;;;14.18;7.15;;;1.70;99.90;;;;;;4992297;28;20263;-56
2024/01/23 00:14:34;;;;;;;15.07;9.27;;;1.70;99.90;;;;;;4983976;28;20560;-55
2024/01/23 00:17:01;;;;;;;17.67;9.57;;;1.60;99.90;;;;;;4987334;28;20046;-56
2024/01/23 00:19:28;;;;;;;16.95;9.88;;;1.50;99.90;;;;;;4972817;28;20043;-55
2024/01/23 00:21:54;;;;;;;17.73;10.30;;;1.50;99.90;;;;;;4970383;28;20088;-54
2024/01/23 00:24:21;;;;;;;22.15;10.70;;;1.50;99.90;;;;;;4990594;28;20096;-54
2024/01/23 00:26:48;;;;;;;17.48;9.48;;;1.50;99.90;;;;;;4973086;28;20034;-53
2024/01/23 00:29:15;;;;;;;18.27;9.77;;;1.50;99.90;;;;;;4970796;28;20411;-54
2024/01/23 00:31:42;;;;;;;22.67;10.05;;;1.50;99.90;;;;;;4974145;28;20459;-54
2024/01/23 00:34:09;;;;;;;21.27;9.88;;;1.60;99.90;;;;;;4982798;28;20505;-54
2024/01/23 00:36:36;;;;;;;18.02;8.65;;;1.60;99.90;;;;;;4982525;28;20053;-53
2024/01/23 00:39:02;;;;;;;19.58;9.18;;;1.70;99.90;;;;;;4974632;28;20142;-51
2024/01/23 00:41:31;;;;;;;17.58;8.57;;;1.80;99.90;;;;;;4963945;28;20061;-55
2024/01/23 00:43:58;;;;;;;15.38;8.73;;;1.80;99.90;;;;;;4984054;28;20085;-54
2024/01/23 00:46:24;;;;;;;14.23;8.05;;;1.90;99.90;;;;;;4983887;28;20153;-53
2024/01/23 00:48:51;;;;;;;21.70;8.50;;;1.90;99.90;;;;;;4984426;28;20399;-55
2024/01/23 00:51:18;;;;;;;17.40;9.40;;;2.00;99.90;;;;;;4987854;28;20451;-53
2024/01/23 00:53:45;;;;;;;17.23;8.23;;;2.00;99.90;;;;;;4988431;28;20050;-53
2024/01/23 00:56:12;;;;;;;14.05;8.02;;;2.10;99.90;;;;;;4972386;28;20046;-55
2024/01/23 00:58:38;;;;;;;14.68;8.15;;;2.00;99.90;;;;;;4979515;28;20051;-53
2024/01/23 01:01:06;;;;;;;17.83;9.13;;;2.10;99.90;;;;;;4986502;28;20047;-55
2024/01/23 01:03:33;;;;;;;15.55;8.73;;;2.10;99.90;;;;;;4986806;28;20046;-54
2024/01/23 01:06:00;;;;;;;13.30;7.97;;;2.10;99.90;;;;;;4964627;28;20526;-54
2024/01/23 01:08:27;;;;;;;;;;;2.10;99.90;;;;;;4972688;28;20488;-53
2024/01/23 01:10:54;;;;;;;11.88;7.38;;;2.10;99.90;;;;;;4982876;28;19921;-54
2024/01/23 01:13:21;;;;;;;12.68;5.70;;;2.10;99.90;;;;;;4976146;28;20047;-53
2024/01/23 01:15:48;;;;;;;13.32;7.90;;;2.10;99.90;;;;;;4990696;28;20401;-56
2024/01/23 01:18:14;;;;;;;15.43;8.13;;;2.10;99.90;;;;;;4982627;28;20398;-53
2024/01/23 01:20:43;;;;;;;;;;;2.10;99.90;;;;;;4973642;28;20387;-54
2024/01/23 01:23:10;;;;;;;11.40;5.88;;;2.10;99.90;;;;;;4963889;28;19922;-54
2024/01/23 01:25:36;;;;;;;14.52;7.72;;;2.10;99.90;;;;;;4980973;28;20376;-53
2024/01/23 01:28:03;;;;;;;14.07;6.13;;;2.10;99.90;;;;;;4972502;28;20039;-54
2024/01/23 01:30:30;;;;;;;16.52;8.23;;;2.10;99.90;;;;;;4970972;28;20051;-54
2024/01/23 01:32:57;;;;;;;16.27;8.05;;;2.10;99.90;;;;;;4970405;28;20097;-53
2024/01/23 01:35:24;;;;;;;15.20;7.80;;;2.10;99.90;;;;;;4977049;28;20436;-56
2024/01/23 01:37:51;;;;;;;12.30;7.40;;;2.10;99.90;;;;;;4965299;28;20041;-56
2024/01/23 01:40:17;;;;;;;14.85;6.43;;;2.10;99.90;;;;;;4971677;28;20065;-53
2024/01/23 01:42:44;;;;;;;19.55;8.52;;;2.10;99.90;;;;;;4979866;28;20431;-55
2024/01/23 01:45:11;;;;;;;15.20;7.35;;;2.20;99.90;;;;;;4965090;28;20053;-56
2024/01/23 01:47:42;;;;;;;15.40;7.93;;;2.20;99.90;;;;;;4987878;28;20049;-54
2024/01/23 01:50:09;;;;;;;14.05;8.00;;;2.10;99.90;;;;;;4972101;28;20394;-53
2024/01/23 01:52:38;;;;;;;14.55;8.30;;;2.20;99.90;;;;;;4974372;28;20039;-57
2024/01/23 01:55:06;;;;;;;15.60;8.57;;;2.20;99.90;;;;;;4968733;28;20054;-57
2024/01/23 01:57:35;;;;;;;16.25;8.60;;;2.20;99.90;;;;;;4990362;28;20561;-55
2024/01/23 02:00:03;;;;;;;16.00;9.20;;;2.20;99.90;;;;;;4970650;28;20448;-56
2024/01/23 02:02:40;;;;;;;16.00;9.10;;;2.20;99.90;;;;;;4988856;28;20561;-57
2024/01/23 02:05:07;;;;;;;14.43;8.25;;;2.20;99.90;;;;;;4988209;28;20046;-57
2024/01/23 02:07:34;;;;;;;16.92;8.88;;;2.10;99.90;;;;;;4985943;28;20043;-54
2024/01/23 02:10:01;;;;;;;19.60;9.25;;;2.00;99.90;;;;;;4980081;28;20047;-53
2024/01/23 02:12:28;;;;;;;17.02;8.88;;;1.90;99.90;;;;;;4975644;28;20051;-54
2024/01/23 02:14:55;;;;;;;17.50;9.18;;;1.90;99.90;;;;;;4986314;28;20076;-54
2024/01/23 02:17:22;;;;;;;13.50;5.93;;;1.90;99.90;;;;;;4982769;28;20046;-56
2024/01/23 02:19:50;;;;;;;15.95;8.80;;;1.90;99.90;;;;;;4975403;28;20106;-55
2024/01/23 02:22:18;;;;;;;15.07;8.52;;;1.90;99.90;;;;;;4981749;28;20335;-55
2024/01/23 02:24:44;;;;;;;10.82;7.05;;;2.00;99.90;;;;;;4974147;28;20049;-55
2024/01/23 02:27:11;;;;;;;13.60;7.13;;;2.00;99.90;;;;;;4988933;28;20191;-56
2024/01/23 02:29:38;;;;;;;16.75;9.18;;;2.00;99.90;;;;;;4970219;28;20075;-54
2024/01/23 02:32:05;;;;;;;12.90;7.60;;;2.00;99.90;;;;;;4978670;28;20047;-56
2024/01/23 02:34:32;;;;;;;16.83;9.02;;;2.00;99.90;;;;;;4990489;28;20061;-57
2024/01/23 02:36:58;;;;;;;22.17;8.95;;;2.00;99.90;;;;;;4986018;28;20097;-53
2024/01/23 02:39:27;;;;;;;17.25;9.48;;;2.10;99.90;;;;;;4977014;28;20134;-57
2024/01/23 02:41:54;;;;;;;15.25;8.77;;;2.00;99.90;;;;;;4977792;28;20491;-53
2024/01/23 02:44:21;;;;;;;15.70;9.23;;;2.00;99.90;;;;;;4979753;28;20133;-55
2024/01/23 02:46:48;;;;;;;16.15;8.90;;;2.00;99.90;;;;;;4993170;28;20039;-57
2024/01/23 02:49:15;;;;;;;9.98;6.40;;;2.00;99.90;;;;;;4983891;28;20419;-55
2024/01/23 02:51:42;;;;;;;18.48;9.82;;;2.00;99.90;;;;;;4976129;28;20503;-56
2024/01/23 02:54:09;;;;;;;19.52;10.05;;;2.10;99.90;;;;;;4993660;28;20057;-55
2024/01/23 02:56:35;;;;;;;21.73;10.57;;;2.10;99.90;;;;;;4981649;28;20043;-56
2024/01/23 02:59:02;;;;;;;17.23;8.88;;;2.10;99.90;;;;;;4984132;28;20061;-54
2024/01/23 03:01:29;;;;;;;23.67;9.93;;;2.10;99.90;;;;;;4994201;28;20131;-57
2024/01/23 03:03:56;;;;;;;19.08;9.02;;;2.10;99.90;;;;;;4992955;28;20394;-55
2024/01/23 03:06:22;;;;;;;20.60;9.57;;;2.10;99.90;;;;;;4985918;28;20066;-54
2024/01/23 03:08:49;;;;;;;19.30;9.77;;;2.10;99.90;;;;;;4969769;28;20082;-54
2024/01/23 03:11:16;;;;;;;15.98;9.07;;;2.10;99.90;;;;;;4974602;28;20042;-53
2024/01/23 03:13:43;;;;;;;16.48;9.95;;;2.10;99.90;;;;;;4991473;28;20046;-55
2024/01/23 03:16:10;;;;;;;15.93;9.38;;;2.10;99.90;;;;;;4988435;28;20514;-57
2024/01/23 03:18:36;;;;;;;17.80;9.85;;;2.10;99.90;;;;;;4972108;28;20039;-56
2024/01/23 03:21:04;;;;;;;13.32;7.75;;;2.10;99.90;;;;;;4993809;28;20491;-54
2024/01/23 03:23:31;;;;;;;18.30;8.18;;;2.20;99.90;;;;;;4976992;28;20042;-54
2024/01/23 03:25:58;;;;;;;15.77;7.22;;;2.40;99.90;;;;;;4982558;28;20050;-53
2024/01/23 03:28:25;;;;;;;11.13;5.35;;;2.50;99.90;;;;;;4975365;28;20039;-54
2024/01/23 03:30:51;;;;;;;10.75;6.18;;;2.50;99.90;;;;;;4992311;28;20057;-57
2024/01/23 03:33:18;;;;;;;5.97;4.03;;;2.50;99.90;;;;;;4975154;28;20043;-54
2024/01/23 03:35:46;;;;;;;11.95;6.68;;;2.60;99.90;;;;;;4966536;28;20130;-53
2024/01/23 03:38:13;;;;;;;11.55;6.55;;;2.70;99.90;;;;;;4982022;28;20125;-55
2024/01/23 03:40:40;;;;;;;11.85;6.25;;;2.70;99.90;;;;;;4979544;28;20054;-57
2024/01/23 03:43:07;;;;;;;13.32;4.95;;;2.70;99.90;;;;;;4984448;28;20085;-54
2024/01/23 03:45:33;;;;;;;18.55;8.63;;;2.60;99.90;;;;;;4981946;28;20058;-54
2024/01/23 03:48:03;;;;;;;17.73;8.48;;;2.60;99.90;;;;;;4960986;28;20070;-54
2024/01/23 03:50:30;;;;;;;13.32;8.68;;;2.50;99.90;;;;;;4977690;28;20105;-53
2024/01/23 03:52:57;;;;;;;14.45;8.57;;;2.40;99.90;;;;;;4991773;28;20069;-55
2024/01/23 03:55:25;;;;;;;17.17;8.95;;;2.30;99.90;;;;;;4983282;28;20050;-56
2024/01/23 03:57:52;;;;;;;18.63;7.47;;;2.30;99.90;;;;;;4984830;28;20061;-53
2024/01/23 04:00:19;;;;;;;16.60;7.22;;;2.30;99.90;;;;;;4975793;28;20479;-55
2024/01/23 04:02:45;;;;;;;16.08;8.20;;;2.30;99.90;;;;;;4990718;28;20042;-56
2024/01/23 04:05:12;;;;;;;9.93;6.15;;;2.30;99.90;;;;;;4978503;28;20038;-55
2024/01/23 04:07:39;;;;;;;10.48;6.25;;;2.30;99.90;;;;;;4990777;28;20046;-55
2024/01/23 04:10:08;;;;;;;10.52;5.75;;;2.30;99.90;;;;;;4985450;28;20050;-53
2024/01/23 04:12:35;;;;;;;9.82;6.07;;;2.30;99.90;;;;;;4992450;28;20391;-56
2024/01/23 04:15:04;;;;;;;6.80;4.72;;;2.30;99.90;;;;;;4993168;28;20558;-57
2024/01/23 04:17:31;;;;;;;7.93;4.72;;;2.50;99.90;;;;;;4975874;28;20100;-54
2024/01/23 04:19:57;;;;;;;7.88;4.22;;;2.60;99.90;;;;;;4982237;28;20439;-54
2024/01/23 04:22:24;;;;;;;9.88;5.38;;;2.50;99.90;;;;;;4986163;28;20117;-57
2024/01/23 04:24:51;;;;;;;7.43;4.40;;;2.50;99.90;;;;;;4982204;28;20375;-55
2024/01/23 04:27:18;;;;;;;9.30;4.40;;;2.50;99.90;;;;;;4986986;28;20057;-56
2024/01/23 04:29:45;;;;;;;6.53;4.07;;;2.50;99.90;;;;;;4973985;28;20046;-54
2024/01/23 04:32:11;;;;;;;9.27;5.65;;;2.50;99.90;;;;;;4977727;28;20504;-57
2024/01/23 04:34:38;;;;;;;9.65;5.60;;;2.50;99.90;;;;;;4972173;28;20046;-56
2024/01/23 04:37:05;;;;;;;12.75;6.10;;;2.30;99.90;;;;;;4973942;28;20045;-53
2024/01/23 04:39:33;;;;;;;8.68;5.50;;;2.20;99.90;;;;;;4974434;28;20044;-54
2024/01/23 04:42:00;;;;;;;9.82;5.82;;;2.20;99.90;;;;;;4975094;28;20707;-56
2024/01/23 04:44:27;;;;;;;9.50;6.22;;;2.20;99.90;;;;;;4967168;28;20460;-55
2024/01/23 04:46:53;;;;;;;10.75;6.63;;;2.20;99.90;;;;;;4973530;28;20053;-57
2024/01/23 04:49:20;;;;;;;12.02;6.30;;;2.30;99.90;;;;;;4973802;28;20045;-54
2024/01/23 04:51:47;;;;;;;9.60;5.82;;;2.30;99.90;;;;;;4961855;28;20493;-53
2024/01/23 04:54:14;;;;;;;7.53;4.32;;;2.30;99.90;;;;;;4971165;28;20138;-54
2024/01/23 04:56:41;;;;;;;7.57;5.00;;;2.30;99.90;;;;;;4964718;28;20403;-56
2024/01/23 04:59:08;;;;;;;11.35;5.40;;;2.20;99.90;;;;;;4966155;28;20491;-56
2024/01/23 05:01:35;;;;;;;9.13;6.28;;;2.20;99.90;;;;;;4963014;28;20043;-55
2024/01/23 05:04:02;;;;;;;13.52;5.53;;;2.20;99.90;;;;;;4963127;28;20391;-54
2024/01/23 05:06:29;;;;;;;11.50;6.65;;;2.20;99.90;;;;;;4961867;28;20050;-54
2024/01/23 05:08:57;;;;;;;13.25;7.97;;;2.20;99.90;;;;;;4976114;28;20149;-55
2024/01/23 05:11:24;;;;;;;;;;;2.30;99.90;;;;;;4963412;28;20106;-56
2024/01/23 05:13:50;;;;;;;10.73;6.57;;;2.20;99.90;;;;;;4963504;28;20272;-57
2024/01/23 05:16:18;;;;;;;11.60;5.68;;;2.20;99.90;;;;;;4954147;28;20055;-56
2024/01/23 05:18:45;;;;;;;15.07;8.23;;;2.20;99.90;;;;;;4964591;28;20043;-54
2024/01/23 05:21:14;;;;;;;22.88;9.75;;;2.20;99.90;;;;;;4966564;28;20094;-53
2024/01/23 05:23:42;;;;;;;26.50;12.32;;;2.20;99.90;;;;;;4972105;28;20058;-55
2024/01/23 05:26:09;;;;;;;18.42;9.77;;;2.10;99.90;;;;;;4954972;28;20038;-57
2024/01/23 05:28:36;;;;;;;19.02;10.30;;;2.10;99.90;;;;;;4972020;28;20082;-57
2024/01/23 05:31:03;;;;;;;23.67;11.98;;;2.20;99.90;;;;;;4968971;28;20130;-53
2024/01/23 05:33:30;;;;;;;27.25;13.50;;;2.10;99.90;;;;;;4972629;28;20050;-58
2024/01/23 05:35:57;;;;;;;26.80;12.73;;;2.20;99.90;;;;;;4970307;28;20054;-55
2024/01/23 05:38:23;;;;;;;27.25;12.35;;;2.20;99.90;;;;;;4984761;28;20053;-56
2024/01/23 05:40:50;;;;;;;29.23;13.43;;;2.20;99.90;;;;;;4958965;28;20043;-56
2024/01/23 05:43:17;;;;;;;20.85;10.07;;;2.20;99.90;;;;;;4982909;28;20046;-54
2024/01/23 05:45:44;;;;;;;;;;;2.20;99.90;;;;;;4978596;28;20057;-56
2024/01/23 05:48:11;;;;;;;24.50;11.98;;;2.20;99.90;;;;;;4958798;28;20366;-55
2024/01/23 05:50:38;;;;;;;22.80;10.73;;;2.20;99.90;;;;;;4972555;28;20467;-53
2024/01/23 05:53:05;;;;;;;27.90;12.85;;;2.20;99.90;;;;;;4982927;28;20514;-55
2024/01/23 05:55:31;;;;;;;23.25;13.30;;;2.20;99.90;;;;;;4978812;28;20043;-52
2024/01/23 05:57:58;;;;;;;21.85;12.27;;;2.20;99.90;;;;;;4975434;28;20050;-50
2024/01/23 06:00:25;;;;;;;27.20;12.10;;;2.20;99.90;;;;;;4960382;28;20376;-52
2024/01/23 06:02:52;;;;;;;18.52;8.60;;;2.20;99.90;;;;;;4980263;28;20043;-54
2024/01/23 06:05:19;;;;;;;11.70;4.45;;;2.30;99.90;;;;;;4971660;28;20046;-52
2024/01/23 06:07:49;;;;;;;14.40;4.05;;;2.40;99.90;;;;;;4980930;28;20046;-51
2024/01/23 06:10:17;;;;;;;8.32;2.95;;;2.50;99.90;;;;;;4985642;28;20035;-51
2024/01/23 06:12:44;;;;;;;;;;;2.60;99.90;;;;;;4974943;28;20049;-54
2024/01/23 06:15:11;;;;;;;15.02;6.18;;;2.70;99.90;;;;;;4980402;28;20396;-50
2024/01/23 06:17:38;;;;;;;12.57;5.43;;;2.60;99.90;;;;;;4987605;28;20073;-53
2024/01/23 06:20:07;;;;;;;13.50;6.82;;;2.60;99.90;;;;;;4981668;28;20627;-51
2024/01/23 06:22:34;;;;;;;9.73;5.22;;;2.50;99.90;;;;;;4959663;28;20047;-52
2024/01/23 06:25:07;;;;;;;9.68;4.43;;;2.40;99.90;;;;;;4969828;28;20398;-52
2024/01/23 06:27:35;;;;;;;6.43;3.63;;;2.40;99.90;;;;;;4984460;28;20038;-55
2024/01/23 06:30:03;;;;;;;3.20;1.80;;;2.50;99.90;;;;;;4978962;28;20130;-52
2024/01/23 06:32:31;;;;;;;7.28;1.70;;;2.60;99.90;;;;;;4976351;28;20553;-54
2024/01/23 06:34:57;;;;;;;5.35;1.67;;;2.80;99.90;;;;;;4982059;28;20138;-51
2024/01/23 06:37:24;;;;;;;12.57;5.03;;;3.10;99.90;;;;;;4985777;28;20039;-52
2024/01/23 06:39:51;;;;;;;18.35;6.88;;;3.30;99.90;;;;;;4978464;28;20429;-52
2024/01/23 06:42:22;;;;;;;29.52;10.18;;;3.30;99.90;;;;;;4994160;28;20118;-52
2024/01/23 06:44:49;;;;;;;12.93;6.25;;;3.20;99.90;;;;;;4977808;28;20043;-54
2024/01/23 06:47:19;;;;;;;17.25;8.23;;;3.10;99.90;;;;;;4987370;28;20073;-51
2024/01/23 06:49:45;;;;;;;21.95;11.50;;;3.00;99.90;;;;;;4988020;28;20053;-53
2024/01/23 06:52:12;;;;;;;12.55;6.32;;;2.80;99.90;;;;;;4987621;28;20035;-52
2024/01/23 06:54:39;;;;;;;9.63;2.67;;;2.70;99.90;;;;;;4993904;28;20046;-53
2024/01/23 06:57:06;;;;;;;10.52;4.43;;;2.70;99.90;;;;;;4983369;28;20041;-53
2024/01/23 06:59:33;;;;;;;30.88;11.60;;;2.80;99.90;;;;;;4993778;28;20042;-52
2024/01/23 07:02:00;;;;;;;8.82;4.20;;;2.90;99.90;;;;;;4991872;28;20070;-53
2024/01/23 07:04:27;;;;;;;13.75;5.18;;;2.80;99.90;;;;;;4982194;28;20050;-55
2024/01/23 07:06:54;;;;;;;9.68;3.63;;;2.80;99.90;;;;;;4974974;28;20047;-53
2024/01/23 07:09:21;;;;;;;6.05;2.67;;;2.80;99.90;;;;;;4975956;28;20039;-53
2024/01/23 07:11:49;;;;;;;11.50;4.63;;;2.90;99.90;;;;;;4979564;28;20047;-52
2024/01/23 07:14:16;;;;;;;10.63;3.50;;;2.90;99.90;;;;;;4993021;28;20422;-52
2024/01/23 07:16:43;;;;;;;9.10;3.50;;;2.90;99.90;;;;;;4985305;28;20492;-51
2024/01/23 07:19:09;;;;;;;13.60;4.85;;;2.90;99.90;;;;;;4982043;28;20035;-51
2024/01/23 07:21:37;;;;;;;10.57;4.38;;;2.90;99.90;;;;;;4966287;28;20045;-52
2024/01/23 07:24:04;;;;;;;8.23;2.70;;;2.90;99.90;;;;;;4982750;28;20121;-52
2024/01/23 07:26:30;;;;;;;8.88;3.85;;;2.90;99.90;;;;;;4986998;28;20141;-53
2024/01/23 07:28:57;;;;;;;8.40;2.85;;;2.90;99.90;;;;;;4982964;28;20047;-52
2024/01/23 07:31:29;;;;;;;3.30;1.17;;;2.90;99.90;;;;;;4980054;28;20491;-54
2024/01/23 07:33:56;;;;;;;4.20;1.42;;;3.00;99.90;;;;;;4984663;28;20514;-53
2024/01/23 07:36:23;;;;;;;;;;;3.10;99.90;;;;;;4978032;28;20061;-52
2024/01/23 07:38:50;;;;;;;11.60;4.85;;;3.20;99.90;;;;;;4993187;28;19928;-52
2024/01/23 07:41:16;;;;;;;13.93;5.40;;;3.20;99.90;;;;;;4985451;28;20045;-53
2024/01/23 07:43:44;;;;;;;5.70;2.95;;;3.20;99.90;;;;;;4993022;28;20045;-55
2024/01/23 07:46:10;;;;;;;;;;;3.20;99.90;;;;;;4980883;28;20035;-56
2024/01/23 07:48:37;;;;;;;3.97;1.90;;;3.20;99.90;;;;;;4976530;28;19926;-53
2024/01/23 07:51:04;;;;;;;9.82;3.58;;;3.20;99.90;;;;;;4992236;28;20052;-55
2024/01/23 07:53:32;;;;;;;9.00;5.05;;;3.20;99.90;;;;;;4978770;28;20039;-56
2024/01/23 07:56:00;;;;;;;11.88;4.68;;;3.20;99.90;;;;;;4984576;28;20113;-52
2024/01/23 07:58:26;;;;;;;10.85;5.20;;;3.10;99.90;;;;;;4987885;28;20039;-56
2024/01/23 08:00:53;;;;;;;9.82;4.35;;;3.10;99.90;;;;;;4980088;28;20048;-53
2024/01/23 08:03:21;;;;;;;10.55;5.40;;;3.10;99.90;;;;;;4992299;28;20093;-53
2024/01/23 08:05:48;;;;;;;7.80;5.32;;;3.10;99.90;;;;;;4984776;28;20042;-52
2024/01/23 08:08:15;;;;;;;13.40;5.90;;;3.10;99.90;;;;;;4986250;28;20100;-54
2024/01/23 08:10:42;;;;;;;35.70;16.45;;;3.10;99.90;;;;;;4985674;28;20049;-51
2024/01/23 08:13:08;;;;;;;16.55;6.43;;;3.10;99.90;;;;;;4974767;28;20065;-55
2024/01/23 08:15:35;;;;;;;7.97;2.90;;;3.10;99.90;;;;;;4986381;28;20403;-54
2024/01/23 08:18:03;;;;;;;16.42;6.40;;;3.10;99.90;;;;;;4989158;28;20052;-55
2024/01/23 08:20:31;;;;;;;12.30;4.85;;;3.10;99.90;;;;;;4976742;28;20043;-52
2024/01/23 08:22:58;;;;;;;12.02;6.07;;;3.10;99.90;;;;;;4971831;28;20126;-53
2024/01/23 08:25:25;;;;;;;30.25;13.93;;;3.20;99.90;;;;;;4984461;28;20487;-55
2024/01/23 08:27:51;;;;;;;15.05;6.95;;;3.10;99.90;;;;;;4976252;28;20508;-54
2024/01/23 08:30:18;;;;;;;12.77;5.88;;;3.00;99.90;;;;;;4991530;28;20038;-53
2024/01/23 08:32:45;;;;;;;10.00;4.20;;;3.00;99.90;;;;;;4984016;28;20133;-56
2024/01/23 08:35:12;;;;;;;17.95;8.77;;;3.00;99.90;;;;;;4977727;28;20056;-54
2024/01/23 08:37:39;;;;;;;19.02;6.90;;;2.90;99.90;;;;;;4985393;28;20053;-55
2024/01/23 08:40:07;;;;;;;13.43;5.63;;;2.90;99.90;;;;;;4974823;28;20129;-54
2024/01/23 08:42:34;;;;;;;11.48;5.65;;;2.90;99.90;;;;;;4985646;28;20041;-53
2024/01/23 08:45:01;;;;;;;;;;;2.90;99.90;;;;;;4974026;28;20053;-54
2024/01/23 08:47:28;;;;;;;10.18;4.60;;;3.00;99.90;;;;;;4969883;28;20401;-56
2024/01/23 08:49:55;;;;;;;9.77;3.33;;;3.00;99.90;;;;;;4969106;28;20070;-53
2024/01/23 08:52:21;;;;;;;8.25;3.55;;;3.00;99.90;;;;;;4976880;28;20042;-52
2024/01/23 08:54:48;;;;;;;11.20;4.40;;;3.10;99.90;;;;;;4984142;28;20054;-52
2024/01/23 08:57:17;;;;;;;15.27;5.15;;;3.20;99.90;;;;;;4975497;28;20043;-52
2024/01/23 08:59:45;;;;;;;9.82;4.65;;;3.20;99.90;;;;;;4968614;28;20548;-53
2024/01/23 09:02:13;;;;;;;;;;;3.20;99.90;;;;;;4969486;28;20101;-52
2024/01/23 09:04:40;;;;;;;24.13;9.03;;;3.20;99.90;;;;;;4991082;28;19956;-52
2024/01/23 09:07:07;;;;;;;20.63;9.00;;;3.20;99.90;;;;;;4983712;28;20057;-53
2024/01/23 09:09:34;;;;;;;20.27;11.23;;;3.20;99.90;;;;;;4986746;28;20038;-55
2024/01/23 09:12:01;;;;;;;14.63;6.63;;;3.30;99.90;;;;;;4986654;28;20392;-54
2024/01/23 09:14:28;;;;;;;11.65;4.97;;;3.30;99.90;;;;;;4983047;28;20039;-54
2024/01/23 09:16:55;;;;;;;11.57;4.60;;;3.20;99.90;;;;;;4983212;28;20475;-56
2024/01/23 09:19:23;;;;;;;10.82;4.05;;;3.10;99.90;;;;;;4984635;28;20125;-53
2024/01/23 09:21:50;;;;;;;11.60;5.32;;;3.10;99.90;;;;;;4987232;28;20042;-53
2024/01/23 09:24:17;;;;;;;16.45;7.40;;;3.10;99.90;;;;;;4963075;28;20039;-52
2024/01/23 09:26:44;;;;;;;16.63;5.18;;;3.20;99.90;;;;;;4972558;28;20042;-53
2024/01/23 09:29:11;;;;;;;14.85;5.15;;;3.30;99.90;;;;;;4971457;28;20492;-53
2024/01/23 09:31:47;;;;;;;8.10;3.80;;;3.30;99.90;;;;;;4970639;28;20043;-53
2024/01/23 09:34:13;;;;;;;10.98;4.25;;;3.40;99.90;;;;;;4990194;28;20100;-55
2024/01/23 09:36:41;;;;;;;13.82;5.68;;;3.50;99.90;;;;;;4961623;28;20068;-54
2024/01/23 09:39:11;;;;;;;11.60;5.10;;;3.60;99.90;;;;;;4980347;28;20522;-53
2024/01/23 09:41:49;;;;;;;7.93;4.60;;;3.70;99.90;;;;;;4985093;28;20047;-54
2024/01/23 09:44:20;;;;;;;9.38;4.72;;;3.80;99.90;;;;;;4982395;28;20038;-53
2024/01/23 09:46:50;;;;;;;9.60;5.20;;;3.90;99.90;;;;;;4967420;28;20118;-56
2024/01/23 09:49:18;;;;;;;12.25;5.10;;;3.90;99.90;;;;;;4991227;28;20069;-55
2024/01/23 09:51:48;;;;;;;11.02;4.93;;;4.00;99.90;;;;;;4984396;28;20043;-52
2024/01/23 09:54:15;;;;;;;11.48;5.55;;;4.10;99.90;;;;;;4964637;28;20046;-55
2024/01/23 09:56:43;;;;;;;12.35;6.38;;;4.10;99.90;;;;;;4972158;28;20073;-54
2024/01/23 09:59:10;;;;;;;11.63;6.00;;;4.10;99.90;;;;;;4972223;28;20048;-52
2024/01/23 10:01:37;;;;;;;14.93;6.70;;;4.00;99.90;;;;;;4989866;28;20046;-54
2024/01/23 10:04:05;;;;;;;8.25;5.63;;;3.90;99.90;;;;;;4974931;28;20101;-53
2024/01/23 10:06:33;;;;;;;12.68;6.25;;;3.90;99.90;;;;;;4985583;28;20043;-55
2024/01/23 10:09:00;;;;;;;15.40;6.25;;;4.00;99.90;;;;;;4986146;28;20360;-55
2024/01/23 10:11:28;;;;;;;13.00;6.32;;;4.10;99.90;;;;;;4980133;28;20491;-54
2024/01/23 10:13:56;;;;;;;15.05;7.72;;;4.10;99.90;;;;;;4976491;28;20043;-54
2024/01/23 10:16:24;;;;;;;13.05;5.95;;;4.20;99.90;;;;;;4980067;28;20479;-53
2024/01/23 10:18:51;;;;;;;12.93;6.93;;;4.30;99.90;;;;;;4994926;28;20042;-52
2024/01/23 10:21:22;;;;;;;16.10;8.45;;;4.50;99.90;;;;;;4986488;28;20038;-53
2024/01/23 10:23:50;;;;;;;27.95;15.30;;;4.50;99.90;;;;;;4990855;28;20084;-53
2024/01/23 10:26:18;;;;;;;13.07;8.38;;;4.50;99.90;;;;;;4994732;28;20422;-54
2024/01/23 10:28:46;;;;;;;10.23;4.50;;;4.50;99.90;;;;;;4987870;28;20066;-54
2024/01/23 10:31:13;;;;;;;10.25;4.30;;;4.60;99.90;;;;;;4993044;28;20406;-55
2024/01/23 10:33:40;;;;;;;13.65;6.78;;;4.50;99.90;;;;;;4975359;28;20038;-54
2024/01/23 10:36:08;;;;;;;12.68;7.03;;;4.60;99.90;;;;;;4990868;28;20058;-55
2024/01/23 10:38:36;;;;;;;10.63;5.20;;;4.60;99.90;;;;;;4981694;28;20065;-55
2024/01/23 10:41:04;;;;;;;28.38;13.52;;;4.60;99.90;;;;;;4968498;28;20039;-53
2024/01/23 10:43:32;;;;;;;15.77;8.88;;;4.60;99.90;;;;;;4994216;28;20483;-52
2024/01/23 10:45:59;;;;;;;8.98;6.10;;;4.60;99.90;;;;;;4974675;28;20402;-52
2024/01/23 10:48:26;;;;;;;;;;;4.60;99.90;;;;;;4994957;28;20031;-53
2024/01/23 10:50:56;;;;;;;12.43;6.57;;;4.70;99.90;;;;;;4994161;28;19928;-56
2024/01/23 10:53:33;;;;;;;9.68;5.10;;;4.90;99.90;;;;;;4985804;28;20042;-56
2024/01/23 10:56:01;;;;;;;8.80;5.20;;;5.00;99.90;;;;;;4972054;28;20109;-52
2024/01/23 10:58:32;;;;;;;17.13;6.57;;;4.90;99.90;;;;;;4986636;28;20045;-53
2024/01/23 11:01:00;;;;;;;10.13;4.75;;;5.00;99.90;;;;;;4993467;28;20061;-52
2024/01/23 11:03:28;;;;;;;6.85;5.05;;;5.10;99.90;;;;;;4979720;28;20038;-52
2024/01/23 11:06:03;;;;;;;7.85;4.30;;;5.00;99.90;;;;;;4982442;28;20035;-56
2024/01/23 11:08:49;;;;;;;6.38;3.60;;;5.10;99.90;;;;;;4993409;28;20517;-56
2024/01/23 11:11:46;;;;;;;12.43;4.70;;;4.90;99.90;;;;;;4993162;28;20388;-54
2024/01/23 11:14:22;;;;;;;11.02;5.30;;;5.00;99.90;;;;;;4976365;28;20051;-53
2024/01/23 11:17:08;;;;;;;14.00;6.00;;;5.00;99.90;;;;;;4994014;28;20406;-52
2024/01/23 11:19:42;;;;;;;9.65;5.38;;;5.20;99.90;;;;;;4993940;28;20057;-56
2024/01/23 11:22:10;;;;;;;14.45;6.88;;;5.30;99.90;;;;;;4981223;28;20053;-52
2024/01/23 11:24:46;;;;;;;11.65;3.80;;;5.20;99.90;;;;;;4974002;28;20097;-53
2024/01/23 11:27:24;;;;;;;6.63;3.90;;;5.20;99.90;;;;;;4990974;28;20046;-54
2024/01/23 11:29:55;;;;;;;6.78;3.65;;;5.30;99.90;;;;;;4966155;28;20038;-52
2024/01/23 11:32:25;;;;;;;3.92;2.35;;;5.60;99.90;;;;;;4990412;28;20098;-55
2024/01/23 11:35:02;;;;;;;3.90;2.15;;;5.80;99.90;;;;;;4979486;28;20038;-53
2024/01/23 11:37:32;;;;;;;7.57;2.40;;;5.90;99.90;;;;;;4993965;28;20089;-52
2024/01/23 11:39:59;;;;;;;7.88;2.50;;;5.90;99.90;;;;;;4993372;28;20503;-53
2024/01/23 11:42:35;;;;;;;11.15;2.65;;;6.00;99.90;;;;;;4989468;28;20122;-55
2024/01/23 11:45:22;;;;;;;9.90;2.55;;;6.00;99.90;;;;;;4979601;28;20069;-56
2024/01/23 11:47:56;;;;;;;7.65;2.58;;;5.90;99.90;;;;;;4988646;28;20066;-57
2024/01/23 11:50:26;;;;;;;7.72;3.45;;;5.60;99.90;;;;;;4984911;28;20061;-55
2024/01/23 11:52:55;;;;;;;10.68;3.45;;;5.60;99.90;;;;;;4971610;28;20456;-52
2024/01/23 11:55:23;;;;;;;10.45;3.35;;;5.60;99.90;;;;;;4989634;28;20399;-52
2024/01/23 11:57:58;;;;;;;6.28;3.28;;;5.70;99.90;;;;;;4994885;23;20038;-58
2024/01/23 12:00:50;;;;;;;5.30;3.05;;;5.70;99.90;;;;;;4955260;29;20051;-56
2024/01/23 12:03:20;;;;;;;8.35;3.55;;;5.70;99.90;;;;;;4968627;28;20050;-54
2024/01/23 12:05:51;;;;;;;10.57;5.25;;;5.70;99.90;;;;;;4972207;28;20046;-55
2024/01/23 12:08:19;;;;;;;11.68;4.07;;;5.70;99.90;;;;;;4973590;28;20066;-54
2024/01/23 12:10:45;;;;;;;;;;;5.70;99.90;;;;;;4974090;28;20046;-55
2024/01/23 12:13:12;;;;;;;8.32;3.35;;;5.80;99.90;;;;;;4971505;28;19922;-55
2024/01/23 12:15:39;;;;;;;11.77;3.45;;;5.90;99.90;;;;;;4965425;28;20031;-55
2024/01/23 12:18:12;;;;;;;7.90;2.83;;;6.00;99.90;;;;;;4973410;28;20151;-56
2024/01/23 12:20:50;;;;;;;10.52;3.85;;;6.10;99.90;;;;;;4973517;28;20053;-54
2024/01/23 12:23:17;;;;;;;5.28;3.13;;;5.90;99.90;;;;;;4970653;28;20126;-55
2024/01/23 12:25:44;;;;;;;;;;;5.90;99.90;;;;;;4974198;28;20043;-53
2024/01/23 12:28:11;;;;;;;17.27;8.07;;;6.00;99.90;;;;;;4973193;28;19923;-55
2024/01/23 12:30:38;;;;;;;10.75;5.63;;;5.90;99.90;;;;;;4972696;28;20098;-56
2024/01/23 12:33:05;;;;;;;13.10;5.90;;;5.90;99.90;;;;;;4972125;28;20098;-56
2024/01/23 12:35:36;;;;;;;20.67;9.35;;;5.80;99.90;;;;;;4973237;28;20043;-58
2024/01/23 12:38:03;;;;;;;12.38;5.57;;;5.70;99.90;;;;;;4972693;28;20057;-58
2024/01/23 12:40:30;;;;;;;20.05;7.30;;;5.60;99.90;;;;;;4972077;28;20049;-54
2024/01/23 12:42:57;;;;;;;26.85;10.82;;;5.60;99.90;;;;;;4970926;28;20041;-55
2024/01/23 12:45:23;;;;;;;35.60;12.45;;;5.60;99.90;;;;;;4972865;28;20046;-57
2024/01/23 12:47:51;;;;;;;34.15;14.32;;;5.60;99.90;;;;;;4971815;28;20043;-54
2024/01/23 12:50:25;;;;;;;;;;;5.60;99.90;;;;;;4973247;28;20045;-54
2024/01/23 12:52:54;;;;;;;14.63;8.50;;;5.60;99.90;;;;;;4971984;28;19922;-55
2024/01/23 12:55:23;;;;;;;12.02;6.47;;;5.50;99.90;;;;;;4972214;28;20042;-53
2024/01/23 12:57:49;;;;;;;15.35;6.00;;;5.40;99.90;;;;;;4971161;28;20047;-53